createdAt,value
2019-01-11T00:01:13.555Z,89.91
2019-01-11T00:03:43.866Z,90.06
2019-01-11T00:06:14.084Z,90.09
2019-01-11T00:08:44.490Z,90.02
2019-01-11T00:11:14.815Z,90.33
2019-01-11T00:13:45.123Z,90.52
2019-01-11T00:16:15.361Z,89.95
2019-01-11T00:18:45.953Z,89.52
2019-01-11T00:21:16.235Z,89.61
2019-01-11T00:23:46.576Z,89.59
2019-01-11T00:26:16.816Z,89.78
2019-01-11T00:28:47.045Z,89.69
2019-01-11T00:31:17.271Z,89.97
2019-01-11T00:33:47.411Z,90.09
2019-01-11T00:36:17.626Z,89.81
2019-01-11T00:38:48.052Z,89.88
2019-01-11T00:41:18.223Z,90.16
2019-01-11T00:43:48.378Z,90.40
2019-01-11T00:46:18.499Z,90.58
2019-01-11T00:48:48.651Z,90.55
2019-01-11T00:51:19.129Z,90.66
2019-01-11T00:53:49.280Z,90.48
2019-01-11T00:56:19.608Z,90.49
2019-01-11T00:58:50.374Z,90.35
2019-01-11T01:01:20.617Z,90.47
2019-01-11T01:03:50.750Z,90.70
2019-01-11T01:06:21.064Z,90.68
2019-01-11T01:08:51.291Z,90.74
2019-01-11T01:11:21.455Z,90.75
2019-01-11T01:13:51.721Z,90.84
2019-01-11T01:16:21.884Z,90.80
2019-01-11T01:18:52.107Z,91.02
2019-01-11T01:21:22.230Z,91.02
2019-01-11T01:23:52.389Z,90.99
2019-01-11T01:26:22.605Z,90.96
2019-01-11T01:28:52.961Z,91.01
2019-01-11T01:31:23.620Z,91.08
2019-01-11T01:33:54.005Z,91.07
2019-01-11T01:36:25.191Z,91.18
2019-01-11T01:38:55.542Z,91.28
2019-01-11T01:41:25.818Z,91.04
2019-01-11T01:43:55.977Z,90.77
2019-01-11T01:46:26.230Z,91.01
2019-01-11T01:48:57.600Z,91.14
2019-01-11T01:51:27.881Z,90.95
2019-01-11T01:53:58.562Z,90.76
2019-01-11T01:56:28.741Z,90.53
2019-01-11T01:58:59.002Z,90.78
2019-01-11T02:01:30.825Z,90.87
2019-01-11T02:04:01.313Z,90.50
2019-01-11T02:06:31.488Z,90.71
2019-01-11T02:09:01.985Z,90.88
2019-01-11T02:11:32.127Z,90.67
2019-01-11T02:14:02.501Z,90.77
2019-01-11T02:16:32.664Z,90.77
2019-01-11T02:19:03.242Z,90.93
2019-01-11T02:21:33.647Z,91.11
2019-01-11T02:24:03.840Z,91.11
2019-01-11T02:26:34.188Z,91.29
2019-01-11T02:29:04.600Z,91.35
2019-01-11T02:31:34.825Z,90.58
2019-01-11T02:34:05.071Z,90.77
2019-01-11T02:36:35.182Z,90.82
2019-01-11T02:39:07.793Z,90.46
2019-01-11T02:41:38.156Z,90.39
2019-01-11T02:44:08.426Z,90.31
2019-01-11T02:46:38.865Z,90.08
2019-01-11T02:49:08.983Z,90.09
2019-01-11T02:51:39.109Z,90.26
2019-01-11T02:54:09.404Z,90.17
2019-01-11T02:56:39.494Z,90.09
2019-01-11T02:59:09.886Z,89.63
2019-01-11T03:01:40.042Z,89.47
2019-01-11T03:04:10.375Z,89.50
2019-01-11T03:06:41.205Z,89.56
2019-01-11T03:09:11.436Z,89.66
2019-01-11T03:11:41.558Z,89.77
2019-01-11T03:14:11.887Z,89.65
2019-01-11T03:16:42.123Z,89.58
2019-01-11T03:19:12.372Z,89.79
2019-01-11T03:21:42.576Z,89.97
2019-01-11T03:24:12.843Z,90.24
2019-01-11T03:26:43.049Z,90.35
2019-01-11T03:29:13.226Z,90.46
2019-01-11T03:31:43.428Z,90.59
2019-01-11T03:34:13.656Z,90.60
2019-01-11T03:36:43.812Z,90.48
2019-01-11T03:39:13.930Z,90.46
2019-01-11T03:41:59.293Z,90.30
2019-01-11T03:44:29.738Z,90.20
2019-01-11T03:46:59.959Z,90.30
2019-01-11T03:49:30.223Z,90.78
2019-01-11T03:52:00.367Z,91.11
2019-01-11T03:54:32.460Z,91.15
2019-01-11T03:57:02.731Z,91.09
2019-01-11T03:59:33.040Z,90.95
2019-01-11T04:02:03.144Z,90.74
2019-01-11T04:04:33.346Z,90.62
2019-01-11T04:07:03.671Z,90.66
2019-01-11T04:09:33.839Z,90.82
2019-01-11T04:12:04.051Z,90.90
2019-01-11T04:14:34.282Z,91.00
2019-01-11T04:17:04.543Z,91.18
2019-01-11T04:19:34.729Z,91.36
2019-01-11T04:22:14.081Z,91.28
2019-01-11T04:25:02.238Z,91.18
2019-01-11T04:27:32.365Z,91.41
2019-01-11T04:30:02.794Z,91.46
2019-01-11T04:32:33.021Z,91.51
2019-01-11T04:35:05.565Z,91.61
2019-01-11T04:37:36.024Z,91.52
2019-01-11T04:40:06.626Z,91.23
2019-01-11T04:42:37.120Z,91.02
2019-01-11T04:45:08.727Z,91.09
2019-01-11T04:47:38.926Z,91.18
2019-01-11T04:50:11.850Z,91.32
2019-01-11T04:52:42.058Z,91.49
2019-01-11T04:55:12.703Z,91.53
2019-01-11T04:57:43.192Z,91.63
2019-01-11T05:00:16.853Z,91.84
2019-01-11T05:02:48.072Z,91.95
2019-01-11T05:05:18.711Z,91.83
2019-01-11T05:07:49.214Z,91.57
2019-01-11T05:10:21.109Z,91.18
2019-01-11T05:12:51.367Z,91.27
2019-01-11T05:15:21.742Z,91.53
2019-01-11T05:17:52.165Z,91.68
2019-01-11T05:20:22.349Z,91.61
2019-01-11T05:22:52.464Z,91.60
2019-01-11T05:25:22.732Z,91.66
2019-01-11T05:27:53.058Z,91.67
2019-01-11T05:30:23.802Z,91.78
2019-01-11T05:32:54.104Z,91.92
2019-01-11T05:35:24.534Z,92.02
2019-01-11T05:37:55.191Z,91.94
2019-01-11T05:40:25.517Z,91.91
2019-01-11T05:42:55.839Z,91.77
2019-01-11T05:45:26.164Z,91.64
2019-01-11T05:47:56.334Z,91.59
2019-01-11T05:50:26.708Z,91.56
2019-01-11T05:52:56.924Z,91.50
2019-01-11T05:55:46.111Z,91.53
2019-01-11T05:58:44.535Z,91.61
2019-01-11T06:01:18.773Z,91.50
2019-01-11T06:03:49.081Z,91.72
2019-01-11T06:06:19.274Z,91.88
2019-01-11T06:08:49.428Z,92.11
2019-01-11T06:11:19.810Z,92.06
2019-01-11T06:13:49.932Z,91.97
2019-01-11T06:16:20.805Z,91.84
2019-01-11T06:18:51.066Z,91.76
2019-01-11T06:21:21.394Z,91.70
2019-01-11T06:23:51.787Z,91.63
2019-01-11T06:26:21.946Z,91.74
2019-01-11T06:28:52.213Z,91.81
2019-01-11T06:31:23.261Z,91.67
2019-01-11T06:33:53.483Z,91.65
2019-01-11T06:36:23.726Z,91.79
2019-01-11T06:38:53.945Z,91.89
2019-01-11T06:41:25.743Z,91.95
2019-01-11T06:43:56.306Z,92.05
2019-01-11T06:46:26.722Z,91.80
2019-01-11T06:48:56.884Z,91.86
2019-01-11T06:51:27.146Z,91.82
2019-01-11T06:53:59.285Z,91.87
2019-01-11T06:56:29.446Z,91.90
2019-01-11T06:58:59.686Z,91.92
2019-01-11T07:01:30.373Z,91.95
2019-01-11T07:04:00.565Z,91.73
2019-01-11T07:06:30.971Z,91.34
2019-01-11T07:09:01.092Z,91.31
2019-01-11T07:11:32.506Z,91.28
2019-01-11T07:14:02.914Z,91.07
2019-01-11T07:16:33.441Z,90.78
2019-01-11T07:19:03.769Z,90.36
2019-01-11T07:21:34.171Z,90.44
2019-01-11T07:24:04.384Z,89.98
2019-01-11T07:26:34.618Z,90.22
2019-01-11T07:29:04.759Z,90.10
2019-01-11T07:31:35.451Z,89.92
2019-01-11T07:34:05.810Z,89.89
2019-01-11T07:36:37.013Z,89.97
2019-01-11T07:39:33.383Z,90.06
2019-01-11T07:42:04.537Z,90.12
2019-01-11T07:44:34.927Z,89.80
2019-01-11T07:47:05.450Z,89.35
2019-01-11T07:49:36.071Z,88.34
2019-01-11T07:52:06.963Z,88.42
2019-01-11T07:54:37.660Z,88.31
2019-01-11T07:57:08.003Z,88.25
2019-01-11T07:59:38.323Z,88.49
2019-01-11T08:02:08.486Z,88.12
2019-01-11T08:04:38.639Z,88.17
2019-01-11T08:07:08.862Z,88.32
2019-01-11T08:09:39.331Z,87.04
2019-01-11T08:12:10.223Z,87.17
2019-01-11T08:14:40.611Z,87.18
2019-01-11T08:17:11.938Z,86.64
2019-01-11T08:19:42.398Z,85.95
2019-01-11T08:22:25.515Z,85.29
2019-01-11T08:25:02.590Z,85.11
2019-01-11T08:27:33.159Z,84.61
2019-01-11T08:30:04.122Z,84.52
2019-01-11T08:32:34.539Z,84.27
2019-01-11T08:35:10.029Z,84.14
2019-01-11T08:37:40.652Z,83.91
2019-01-11T08:40:12.491Z,83.71
2019-01-11T08:42:43.889Z,83.08
2019-01-11T08:45:14.551Z,83.36
2019-01-11T08:47:45.096Z,83.22
2019-01-11T08:50:18.114Z,82.36
2019-01-11T08:52:49.277Z,82.50
2019-01-11T08:55:19.895Z,82.13
2019-01-11T08:57:50.482Z,81.91
2019-01-11T09:00:21.168Z,82.38
2019-01-11T09:02:51.462Z,82.11
2019-01-11T09:05:24.382Z,82.40
2019-01-11T09:07:55.125Z,81.64
2019-01-11T09:10:25.868Z,81.31
2019-01-11T09:12:56.159Z,81.37
2019-01-11T09:15:26.742Z,80.87
2019-01-11T09:18:21.795Z,80.78
2019-01-11T09:20:52.713Z,80.54
2019-01-11T09:23:23.179Z,79.28
2019-01-11T09:25:53.834Z,79.62
2019-01-11T09:28:27.347Z,79.13
2019-01-11T09:30:57.846Z,79.22
2019-01-11T09:33:28.433Z,79.62
2019-01-11T09:36:00.944Z,78.67
2019-01-11T09:38:31.287Z,79.10
2019-01-11T09:41:01.446Z,78.90
2019-01-11T09:43:34.378Z,78.90
2019-01-11T09:46:04.666Z,78.48
2019-01-11T09:48:34.865Z,78.83
2019-01-11T09:51:05.029Z,78.93
2019-01-11T09:53:35.247Z,78.71
2019-01-11T09:56:05.759Z,78.90
2019-01-11T09:58:36.346Z,79.20
2019-01-11T10:01:06.936Z,78.84
2019-01-11T10:03:37.054Z,78.55
2019-01-11T10:06:07.157Z,78.57
2019-01-11T10:08:37.446Z,78.97
2019-01-11T10:11:07.718Z,79.82
2019-01-11T10:13:37.852Z,78.75
2019-01-11T10:16:08.178Z,79.28
2019-01-11T10:18:38.993Z,79.36
2019-01-11T10:21:10.916Z,79.78
2019-01-11T10:23:41.277Z,79.60
2019-01-11T10:26:12.271Z,79.88
2019-01-11T10:28:42.627Z,79.62
2019-01-11T10:31:12.986Z,79.33
2019-01-11T10:33:43.118Z,79.73
2019-01-11T10:36:13.668Z,80.04
2019-01-11T10:38:43.903Z,79.42
2019-01-11T10:41:14.461Z,79.72
2019-01-11T10:43:44.743Z,78.89
2019-01-11T10:46:32.394Z,79.27
2019-01-11T10:49:02.798Z,81.10
2019-01-11T10:51:33.083Z,80.29
2019-01-11T10:54:03.321Z,79.12
2019-01-11T10:56:33.633Z,79.27
2019-01-11T10:59:03.987Z,78.92
2019-01-11T11:01:34.227Z,78.66
2019-01-11T11:04:04.738Z,78.88
2019-01-11T11:06:35.206Z,79.33
2019-01-11T11:09:07.223Z,78.77
2019-01-11T11:11:37.452Z,77.96
2019-01-11T11:14:07.824Z,78.57
2019-01-11T11:16:38.141Z,77.98
2019-01-11T11:19:08.280Z,77.98
2019-01-11T11:21:38.416Z,77.84
2019-01-11T11:24:08.793Z,77.53
2019-01-11T11:26:40.354Z,78.29
2019-01-11T11:29:10.783Z,77.58
2019-01-11T11:31:41.221Z,78.43
2019-01-11T11:34:11.362Z,78.44
2019-01-11T11:36:41.485Z,77.85
2019-01-11T11:39:12.503Z,77.93
2019-01-11T11:41:42.770Z,77.96
2019-01-11T11:44:13.405Z,77.94
2019-01-11T11:46:43.824Z,78.30
2019-01-11T11:49:14.388Z,78.55
2019-01-11T11:51:44.833Z,78.63
2019-01-11T11:54:15.472Z,78.20
2019-01-11T11:56:46.004Z,78.33
2019-01-11T11:59:16.154Z,77.80
2019-01-11T12:01:46.839Z,78.53
2019-01-11T12:04:17.534Z,78.79
2019-01-11T12:06:47.788Z,77.63
2019-01-11T12:09:18.124Z,78.26
2019-01-11T12:11:49.296Z,77.67
2019-01-11T12:14:20.150Z,78.45
2019-01-11T12:16:50.421Z,78.19
2019-01-11T12:19:20.747Z,78.39
2019-01-11T12:21:51.201Z,78.37
2019-01-11T12:24:21.309Z,78.25
2019-01-11T12:26:51.492Z,78.06
2019-01-11T12:29:21.733Z,78.09
2019-01-11T12:31:52.022Z,78.46
2019-01-11T12:34:22.135Z,77.89
2019-01-11T12:36:52.395Z,78.49
2019-01-11T12:39:22.674Z,78.71
2019-01-11T12:41:53.472Z,79.01
2019-01-11T12:44:23.783Z,78.95
2019-01-11T12:46:55.442Z,78.27
2019-01-11T12:49:25.904Z,78.32
2019-01-11T12:51:56.272Z,78.48
2019-01-11T12:54:26.375Z,78.75
2019-01-11T12:56:56.749Z,79.00
2019-01-11T12:59:27.028Z,78.82
2019-01-11T13:01:57.392Z,78.52
2019-01-11T13:04:27.535Z,78.46
2019-01-11T13:06:58.294Z,78.31
2019-01-11T13:09:28.549Z,78.62
2019-01-11T13:11:58.908Z,80.17
2019-01-11T13:14:29.130Z,79.70
2019-01-11T13:16:59.265Z,79.89
2019-01-11T13:19:29.520Z,79.88
2019-01-11T13:22:00.661Z,80.39
2019-01-11T13:24:31.589Z,79.43
2019-01-11T13:27:02.992Z,79.63
2019-01-11T13:29:33.347Z,79.08
2019-01-11T13:32:03.544Z,80.38
2019-01-11T13:34:33.790Z,80.71
2019-01-11T13:37:04.455Z,82.62
2019-01-11T13:39:34.695Z,83.44
2019-01-11T13:42:05.311Z,83.17
2019-01-11T13:44:36.902Z,81.88
2019-01-11T13:47:08.304Z,83.59
2019-01-11T13:49:38.644Z,85.08
2019-01-11T13:52:09.079Z,84.59
2019-01-11T13:54:39.293Z,84.09
2019-01-11T13:57:09.572Z,85.23
2019-01-11T13:59:41.642Z,84.48
2019-01-11T14:02:12.367Z,86.90
2019-01-11T14:04:42.657Z,88.00
2019-01-11T14:07:13.099Z,88.30
2019-01-11T14:09:43.485Z,87.66
2019-01-11T14:12:14.097Z,89.18
2019-01-11T14:14:44.365Z,90.47
2019-01-11T14:17:14.640Z,89.40
2019-01-11T14:19:45.055Z,89.14
2019-01-11T14:22:15.918Z,88.23
2019-01-11T14:24:46.364Z,88.58
2019-01-11T14:27:16.625Z,89.99
2019-01-11T14:29:46.923Z,91.59
2019-01-11T14:32:17.762Z,91.84
2019-01-11T14:34:48.178Z,92.25
2019-01-11T14:37:18.481Z,91.75
2019-01-11T14:39:49.264Z,91.33
2019-01-11T14:42:19.655Z,90.74
2019-01-11T14:44:50.095Z,91.74
2019-01-11T14:47:20.968Z,92.12
2019-01-11T14:49:51.188Z,92.10
2019-01-11T14:52:23.735Z,91.47
2019-01-11T14:54:56.803Z,91.59
2019-01-11T14:57:27.439Z,90.80
2019-01-11T14:59:58.068Z,90.44
2019-01-11T15:02:28.548Z,91.70
2019-01-11T15:04:59.138Z,91.29
2019-01-11T15:07:29.328Z,90.70
2019-01-11T15:09:59.764Z,90.09
2019-01-11T15:12:29.954Z,89.97
2019-01-11T15:15:00.261Z,90.40
2019-01-11T15:17:30.997Z,90.26
2019-01-11T15:20:03.422Z,90.27
2019-01-11T15:22:33.485Z,89.88
2019-01-11T15:25:03.870Z,89.15
2019-01-11T15:27:34.462Z,90.65
2019-01-11T15:30:06.268Z,90.66
2019-01-11T15:32:36.562Z,90.43
2019-01-11T15:35:07.160Z,90.09
2019-01-11T15:37:37.516Z,89.88
2019-01-11T15:40:12.298Z,90.97
2019-01-11T15:42:42.826Z,91.53
2019-01-11T15:45:13.168Z,92.64
2019-01-11T15:47:44.996Z,92.69
2019-01-11T15:50:36.955Z,92.96
2019-01-11T15:53:07.267Z,93.43
2019-01-11T15:55:37.410Z,94.74
2019-01-11T15:58:07.745Z,94.62
2019-01-11T16:00:42.849Z,94.38
2019-01-11T16:03:13.032Z,94.13
2019-01-11T16:05:43.733Z,93.96
2019-01-11T16:08:14.007Z,94.66
2019-01-11T16:11:34.714Z,94.26
2019-01-11T16:14:19.683Z,94.42
2019-01-11T16:17:00.838Z,93.64
2019-01-11T16:19:31.059Z,93.67
2019-01-11T16:22:01.411Z,93.49
2019-01-11T16:24:31.974Z,95.82
2019-01-11T16:27:02.435Z,94.95
2019-01-11T16:29:32.745Z,94.73
2019-01-11T16:32:03.194Z,94.40
2019-01-11T16:34:33.775Z,94.71
2019-01-11T16:37:04.219Z,94.49
2019-01-11T16:39:34.727Z,94.18
2019-01-11T16:42:05.529Z,95.30
2019-01-11T16:44:35.925Z,94.99
2019-01-11T16:47:06.380Z,93.59
2019-01-11T16:49:36.769Z,95.79
2019-01-11T16:52:07.341Z,95.15
2019-01-11T16:54:37.718Z,94.45
2019-01-11T16:57:07.999Z,95.38
2019-01-11T16:59:38.616Z,95.21
2019-01-11T17:02:09.064Z,95.28
2019-01-11T17:04:39.308Z,95.43
2019-01-11T17:07:09.457Z,95.59
2019-01-11T17:09:40.033Z,95.36
2019-01-11T17:12:10.671Z,95.41
2019-01-11T17:14:41.164Z,95.60
2019-01-11T17:17:11.580Z,95.52
2019-01-11T17:19:41.854Z,95.11
2019-01-11T17:22:12.325Z,94.97
2019-01-11T17:24:42.752Z,96.85
2019-01-11T17:27:13.243Z,96.95
2019-01-11T17:29:47.087Z,96.34
2019-01-11T17:32:16.434Z,95.62
2019-01-11T17:34:46.831Z,95.61
2019-01-11T17:37:17.380Z,95.25
2019-01-11T17:39:48.902Z,95.85
2019-01-11T17:42:19.929Z,95.77
2019-01-11T17:44:50.305Z,96.10
2019-01-11T17:47:20.714Z,97.17
2019-01-11T17:49:50.972Z,96.57
2019-01-11T17:52:21.386Z,96.25
2019-01-11T17:54:51.884Z,95.91
2019-01-11T17:57:22.173Z,95.70
2019-01-11T17:59:52.440Z,95.59
2019-01-11T18:02:22.736Z,95.07
2019-01-11T18:04:53.071Z,95.27
2019-01-11T18:07:23.471Z,95.07
2019-01-11T18:09:54.009Z,96.58
2019-01-11T18:12:24.479Z,96.55
2019-01-11T18:14:54.734Z,95.84
2019-01-11T18:17:25.210Z,95.00
2019-01-11T18:19:55.961Z,95.06
2019-01-11T18:22:26.394Z,95.53
2019-01-11T18:24:56.612Z,94.83
2019-01-11T18:27:26.910Z,93.96
2019-01-11T18:29:57.651Z,93.91
2019-01-11T18:32:28.074Z,92.90
2019-01-11T18:34:58.513Z,92.95
2019-01-11T18:37:28.768Z,92.72
2019-01-11T18:39:59.235Z,92.84
2019-01-11T18:42:29.948Z,92.86
2019-01-11T18:45:01.231Z,92.73
2019-01-11T18:47:31.731Z,92.59
2019-01-11T18:50:02.275Z,92.19
2019-01-11T18:52:32.723Z,92.20
2019-01-11T18:55:03.061Z,92.54
2019-01-11T18:57:33.511Z,92.64
2019-01-11T19:00:04.154Z,92.77
2019-01-11T19:02:35.130Z,93.17
2019-01-11T19:05:07.023Z,93.15
2019-01-11T19:07:37.553Z,92.96
2019-01-11T19:10:10.602Z,92.98
2019-01-11T19:12:41.100Z,92.74
2019-01-11T19:15:13.999Z,92.75
2019-01-11T19:17:44.271Z,93.19
2019-01-11T19:20:26.184Z,93.53
2019-01-11T19:22:56.689Z,93.63
2019-01-11T19:25:27.534Z,93.68
2019-01-11T19:27:58.006Z,93.40
2019-01-11T19:30:29.861Z,93.07
2019-01-11T19:33:00.234Z,92.65
2019-01-11T19:35:30.882Z,92.50
2019-01-11T19:38:01.392Z,92.56
2019-01-11T19:40:31.879Z,92.47
2019-01-11T19:43:05.082Z,92.31
2019-01-11T19:45:36.042Z,92.80
2019-01-11T19:48:07.226Z,93.05
2019-01-11T19:50:37.867Z,92.85
2019-01-11T19:53:09.547Z,92.76
2019-01-11T19:55:40.192Z,92.75
2019-01-11T19:58:10.682Z,92.79
2019-01-11T20:00:41.115Z,92.59
2019-01-11T20:03:11.848Z,92.79
2019-01-11T20:05:42.516Z,92.59
2019-01-11T20:08:13.216Z,92.57
2019-01-11T20:10:43.957Z,92.49
2019-01-11T20:13:14.292Z,92.16
2019-01-11T20:15:44.900Z,91.59
2019-01-11T20:18:15.816Z,91.25
2019-01-11T20:20:46.414Z,90.72
2019-01-11T20:23:17.002Z,90.85
2019-01-11T20:25:47.559Z,90.65
2019-01-11T20:28:18.119Z,91.11
2019-01-11T20:30:48.547Z,91.21
2019-01-11T20:33:19.604Z,91.38
2019-01-11T20:35:50.356Z,91.06
2019-01-11T20:38:20.708Z,91.11
2019-01-11T20:40:51.314Z,90.98
2019-01-11T20:43:22.115Z,90.83
2019-01-11T20:45:52.608Z,90.62
2019-01-11T20:48:23.332Z,90.71
2019-01-11T20:50:53.870Z,90.48
2019-01-11T20:53:24.592Z,90.67
2019-01-11T20:55:58.032Z,90.41
2019-01-11T20:58:28.584Z,90.08
2019-01-11T21:00:59.386Z,89.88
2019-01-11T21:03:30.241Z,90.16
2019-01-11T21:06:01.038Z,89.92
2019-01-11T21:08:31.637Z,89.52
2019-01-11T21:11:02.096Z,89.52
2019-01-11T21:13:32.662Z,89.40
2019-01-11T21:16:04.404Z,89.59
2019-01-11T21:18:34.913Z,88.97
2019-01-11T21:21:05.639Z,89.04
2019-01-11T21:23:36.069Z,89.14
2019-01-11T21:26:06.527Z,88.74
2019-01-11T21:28:37.597Z,89.02
2019-01-11T21:31:08.407Z,89.14
2019-01-11T21:33:38.857Z,89.21
2019-01-11T21:36:09.116Z,89.17
2019-01-11T21:38:41.169Z,88.88
2019-01-11T21:41:11.587Z,88.81
2019-01-11T21:43:42.154Z,88.34
2019-01-11T21:46:12.902Z,88.98
2019-01-11T21:48:43.648Z,88.96
2019-01-11T21:51:14.017Z,88.71
2019-01-11T21:53:44.515Z,88.94
2019-01-11T21:56:14.802Z,88.93
2019-01-11T21:58:45.270Z,88.78
2019-01-11T22:01:15.922Z,88.74
2019-01-11T22:03:46.361Z,88.88
2019-01-11T22:06:17.933Z,88.98
2019-01-11T22:08:51.510Z,88.41
2019-01-11T22:11:22.142Z,88.01
2019-01-11T22:13:52.775Z,88.23
2019-01-11T22:16:23.171Z,88.87
2019-01-11T22:18:53.791Z,88.99
2019-01-11T22:21:24.248Z,88.85
2019-01-11T22:23:54.771Z,89.02
2019-01-11T22:26:25.018Z,89.20
2019-01-11T22:28:55.696Z,89.20
2019-01-11T22:31:26.632Z,89.03
2019-01-11T22:33:57.475Z,88.72
2019-01-11T22:36:28.037Z,89.02
2019-01-11T22:38:58.634Z,88.78
2019-01-11T22:41:28.848Z,88.96
2019-01-11T22:43:59.263Z,89.10
2019-01-11T22:46:29.765Z,89.80
2019-01-11T22:49:00.136Z,89.30
2019-01-11T22:51:30.557Z,89.42
2019-01-11T22:54:00.882Z,89.75
2019-01-11T22:56:31.315Z,89.78
2019-01-11T22:59:01.771Z,89.43
2019-01-11T23:02:28.458Z,89.76
2019-01-11T23:04:59.129Z,89.16
2019-01-11T23:07:48.815Z,89.16
2019-01-11T23:10:32.766Z,89.78
2019-01-11T23:13:15.360Z,89.95
2019-01-11T23:15:52.719Z,89.73
2019-01-11T23:18:25.745Z,89.97
2019-01-11T23:21:02.257Z,90.08
2019-01-11T23:23:32.712Z,89.68
2019-01-11T23:26:03.043Z,89.83
2019-01-11T23:28:33.498Z,89.90
2019-01-11T23:31:03.945Z,89.83
2019-01-11T23:33:34.584Z,89.81
2019-01-11T23:36:05.290Z,89.88
2019-01-11T23:38:35.941Z,89.77
2019-01-11T23:41:06.280Z,89.79
2019-01-11T23:43:36.507Z,89.92
2019-01-11T23:46:06.760Z,90.25
2019-01-11T23:48:36.918Z,90.31
2019-01-11T23:51:07.111Z,90.49
2019-01-11T23:53:37.343Z,90.43
2019-01-11T23:56:07.643Z,90.44
2019-01-11T23:58:38.223Z,90.54
